Kyokuhoumaru No.12 — JL5963 — position and weather

sailwx.info

Track history (hours):
 
Tides and Currents Weather Stations Pressure Air Temp Water Temp Dewpoint Dewpoint Depression Visibility Wind Speed Wind Dir Waves Ship Positions

Kyokuhoumaru No.12

Last reported at 2015-Apr-25 15:27 UTC. Time now 2015-May-07 00:35 UTC.
Position N 34°33' E 135°02'.
Warning: this ship's position is 11 days out of date.

Length 57 m.

Type: Tanker. MMSI: 431500879.

Date/timePositionNaut miles runAvg speedWind from/ knotsBaromVisibWave heightAir tempDewpointWater temp
2015-Apr-25 15:27N 34°33' E 135°02'3 0.1
2015-Apr-23 17:33N 34°34' E 135°05'1110.7
2015-Apr-23 16:33N 34°24' E 135°03'233 7.3
2015-Apr-22 08:31N 35°07' E 139°41'9 9.2
2015-Apr-22 07:31N 35°15' E 139°46'8 8.8
2015-Apr-22 06:33N 35°23' E 139°42'10 9.5
2015-Apr-22 05:28N 35°30' E 139°51'9 9.3
2015-Apr-22 04:33N 35°37' E 139°57'4 4.0
2015-Apr-22 03:31N 35°41' E 139°57'0 0.0
2015-Apr-22 02:19N 35°41' E 139°57'0 0.0
2015-Apr-22 01:28N 35°41' E 139°57'0 0.0
2015-Apr-22 00:31N 35°41' E 139°57'1 1.1
2015-Apr-21 23:30N 35°40' E 139°57'5 4.6
2015-Apr-21 22:30N 35°36' E 139°54'0 0.0
2015-Apr-21 21:30N 35°36' E 139°54'0 0.0
2015-Apr-21 20:33N 35°36' E 139°54'0 0.0
2015-Apr-21 19:30N 35°36' E 139°54'0 0.0
2015-Apr-21 18:27N 35°36' E 139°54'0 0.0
2015-Apr-21 17:33N 35°36' E 139°54'0 0.0
2015-Apr-21 16:30N 35°36' E 139°54'0 0.0
2015-Apr-21 15:33N 35°36' E 139°54'0 0.0
2015-Apr-21 14:30N 35°36' E 139°54'0 0.0
2015-Apr-21 13:18N 35°36' E 139°54'0 0.0
2015-Apr-21 12:33N 35°36' E 139°54'0 0.0
2015-Apr-21 11:24N 35°36' E 139°54'0 0.0
2015-Apr-21 10:33N 35°36' E 139°54'0 0.0
2015-Apr-21 09:30N 35°36' E 139°54'0 0.0
2015-Apr-21 08:33N 35°36' E 139°54'0 0.0
2015-Apr-21 07:33N 35°36' E 139°54'7 7.5
2015-Apr-21 06:33N 35°29' E 139°55'0 0.1
2015-Apr-21 05:32N 35°29' E 139°55'0 0.0
2015-Apr-21 04:32N 35°29' E 139°55'0 0.0
2015-Apr-21 03:32N 35°29' E 139°55'0 0.0
2015-Apr-21 02:32N 35°29' E 139°55'0 0.0
2015-Apr-21 01:26N 35°29' E 139°55'0 0.1
2015-Apr-21 00:29N 35°29' E 139°55'0 0.0
2015-Apr-20 23:23N 35°29' E 139°55'0 0.0
2015-Apr-20 22:32N 35°29' E 139°55'0 0.0
2015-Apr-20 21:29N 35°29' E 139°55'0 0.0
2015-Apr-20 20:29N 35°29' E 139°55'0 0.0
2015-Apr-20 19:32N 35°29' E 139°55'0 0.0
2015-Apr-20 18:17N 35°29' E 139°55'0 0.0
2015-Apr-20 17:14N 35°29' E 139°55'0 0.0
2015-Apr-20 16:29N 35°29' E 139°55'0 0.0
2015-Apr-20 15:23N 35°29' E 139°55'0 0.0
2015-Apr-20 14:23N 35°29' E 139°55'0 0.1
2015-Apr-20 13:29N 35°29' E 139°55'0 0.0
2015-Apr-20 12:29N 35°29' E 139°55'0 0.0
2015-Apr-20 11:23N 35°29' E 139°55'0 0.0
2015-Apr-20 10:20N 35°29' E 139°55'0 0.0
2015-Apr-20 09:11N 35°29' E 139°55'0 0.1
2015-Apr-20 08:32N 35°29' E 139°55'0 0.0
2015-Apr-20 07:29N 35°29' E 139°55'5 5.2
2015-Apr-20 06:33N 35°27' E 139°49'10 9.8
2015-Apr-20 05:32N 35°17' E 139°45'  
2015-Apr-15 22:14N 35°06' E 139°40'6 8.4
2015-Apr-15 21:33N 35°10' E 139°45'17 8.3
2015-Apr-15 19:33N 35°27' E 139°47'10 9.5
2015-Apr-15 18:33N 35°35' E 139°54'1 0.8
2015-Apr-15 17:31N 35°36' E 139°54'0 0.0
2015-Apr-15 16:34N 35°36' E 139°54'0 0.0
2015-Apr-15 15:28N 35°36' E 139°54'  
Track history (hours):
 
Tides and Currents Weather Stations Pressure Air Temp Water Temp Dewpoint Dewpoint Depression Visibility Wind Speed Wind Dir Waves Ship Positions

Kyokuhoumaru No.12

Last reported at 2015-Apr-25 15:27 UTC. Time now 2015-May-07 00:35 UTC.
Position N 34°33' E 135°02'.
Warning: this ship's position is 11 days out of date.

Length 57 m.

Type: Tanker. MMSI: 431500879.

Date/timePositionNaut miles runAvg speedWind from/ knotsBaromVisibWave heightAir tempDewpointWater temp
2015-Apr-25 15:27N 34°33' E 135°02'3 0.1
2015-Apr-23 17:33N 34°34' E 135°05'1110.7
2015-Apr-23 16:33N 34°24' E 135°03'233 7.3
2015-Apr-22 08:31N 35°07' E 139°41'9 9.2
2015-Apr-22 07:31N 35°15' E 139°46'8 8.8
2015-Apr-22 06:33N 35°23' E 139°42'10 9.5
2015-Apr-22 05:28N 35°30' E 139°51'9 9.3
2015-Apr-22 04:33N 35°37' E 139°57'4 4.0
2015-Apr-22 03:31N 35°41' E 139°57'0 0.0
2015-Apr-22 02:19N 35°41' E 139°57'0 0.0
2015-Apr-22 01:28N 35°41' E 139°57'0 0.0
2015-Apr-22 00:31N 35°41' E 139°57'1 1.1
2015-Apr-21 23:30N 35°40' E 139°57'5 4.6
2015-Apr-21 22:30N 35°36' E 139°54'0 0.0
2015-Apr-21 21:30N 35°36' E 139°54'0 0.0
2015-Apr-21 20:33N 35°36' E 139°54'0 0.0
2015-Apr-21 19:30N 35°36' E 139°54'0 0.0
2015-Apr-21 18:27N 35°36' E 139°54'0 0.0
2015-Apr-21 17:33N 35°36' E 139°54'0 0.0
2015-Apr-21 16:30N 35°36' E 139°54'0 0.0
2015-Apr-21 15:33N 35°36' E 139°54'0 0.0
2015-Apr-21 14:30N 35°36' E 139°54'0 0.0
2015-Apr-21 13:18N 35°36' E 139°54'0 0.0
2015-Apr-21 12:33N 35°36' E 139°54'0 0.0
2015-Apr-21 11:24N 35°36' E 139°54'0 0.0
2015-Apr-21 10:33N 35°36' E 139°54'0 0.0
2015-Apr-21 09:30N 35°36' E 139°54'0 0.0
2015-Apr-21 08:33N 35°36' E 139°54'0 0.0
2015-Apr-21 07:33N 35°36' E 139°54'7 7.5
2015-Apr-21 06:33N 35°29' E 139°55'0 0.1
2015-Apr-21 05:32N 35°29' E 139°55'0 0.0
2015-Apr-21 04:32N 35°29' E 139°55'0 0.0
2015-Apr-21 03:32N 35°29' E 139°55'0 0.0
2015-Apr-21 02:32N 35°29' E 139°55'0 0.0
2015-Apr-21 01:26N 35°29' E 139°55'0 0.1
2015-Apr-21 00:29N 35°29' E 139°55'0 0.0
2015-Apr-20 23:23N 35°29' E 139°55'0 0.0
2015-Apr-20 22:32N 35°29' E 139°55'0 0.0
2015-Apr-20 21:29N 35°29' E 139°55'0 0.0
2015-Apr-20 20:29N 35°29' E 139°55'0 0.0
2015-Apr-20 19:32N 35°29' E 139°55'0 0.0
2015-Apr-20 18:17N 35°29' E 139°55'0 0.0
2015-Apr-20 17:14N 35°29' E 139°55'0 0.0
2015-Apr-20 16:29N 35°29' E 139°55'0 0.0
2015-Apr-20 15:23N 35°29' E 139°55'0 0.0
2015-Apr-20 14:23N 35°29' E 139°55'0 0.1
2015-Apr-20 13:29N 35°29' E 139°55'0 0.0
2015-Apr-20 12:29N 35°29' E 139°55'0 0.0
2015-Apr-20 11:23N 35°29' E 139°55'0 0.0
2015-Apr-20 10:20N 35°29' E 139°55'0 0.0
2015-Apr-20 09:11N 35°29' E 139°55'0 0.1
2015-Apr-20 08:32N 35°29' E 139°55'0 0.0
2015-Apr-20 07:29N 35°29' E 139°55'5 5.2
2015-Apr-20 06:33N 35°27' E 139°49'10 9.8
2015-Apr-20 05:32N 35°17' E 139°45'  
2015-Apr-15 22:14N 35°06' E 139°40'6 8.4
2015-Apr-15 21:33N 35°10' E 139°45'17 8.3
2015-Apr-15 19:33N 35°27' E 139°47'10 9.5
2015-Apr-15 18:33N 35°35' E 139°54'1 0.8
2015-Apr-15 17:31N 35°36' E 139°54'0 0.0
2015-Apr-15 16:34N 35°36' E 139°54'0 0.0
2015-Apr-15 15:28N 35°36' E 139°54'  

Dump ship's entire track history